Tiffany, Colorado
Current Conditions -  °F | °C
As of 4:53 AM on Sunday 25 Jan 2015 (Local Time) from KDRO Reporting Station
Clear Clear  
Wind Chill: 10°   Ceiling: Unl
Heat Index: 17°   Visibility: 10mi
Dew Point: 14°   Wind: 5mph
Humidity: 88%   Direction: 50°NE
Pressure: 30.27"   Gusts: NA
Location:  37.0891°N, 107.649°W
Report Text: KDRO 251153Z AUTO 05004KT 10SM CLR M08/M10 A3027 RMK AO2 SLP287 T10831100 11056 21089 52003
Loading
Personal Weather Stations






























Interactive Weather Map New forecast layout! Learn more

10-Day Weather Forecast

Advertisements
Track Severe Weather on mobile